Time;durP1;ratioP1;P1;durP2;ratioP2;P2;SDS_P1;SDS_P2;PMS_P1;PMS_P2;Temp;Humidity;BMP_temperature;BMP_pressure;BME280_temperature;BME280_humidity;BME280_pressure;Samples;Min_cycle;Max_cycle;Signal;HPM_P1;HPM_P2
2021/07/12 00:00:28;;;;;;;;;;;;;;;23.03;86.02;100192.08;1702231;82;20785;-75
2021/07/12 00:02:55;;;;;;;;;;;;;;;23.02;85.61;100190.43;1711485;83;20658;-75
2021/07/12 00:05:24;;;;;;;;;;;;;;;23.06;85.66;100191.60;1702810;82;20569;-76
2021/07/12 00:07:50;;;;;;;;;;;;;;;23.02;85.61;100186.39;1701564;82;20535;-76
2021/07/12 00:10:17;;;;;;;;;;;;;;;22.90;86.08;100191.28;1695911;83;21051;-81
2021/07/12 00:12:44;;;;;;;;;;;;;;;22.87;86.34;100197.14;1674070;84;20146;-76
2021/07/12 00:15:11;;;;;;;;;;;;;;;22.71;87.16;100198.66;1698363;82;20460;-77
2021/07/12 00:17:38;;;;;;;;;;;;;;;22.70;87.65;100194.85;1670227;83;20179;-77
2021/07/12 00:20:05;;;;;;;;;;;;;;;22.65;87.77;100196.09;1701481;82;20151;-76
2021/07/12 00:22:31;;;;;;;;;;;;;;;22.63;88.22;100190.14;1681212;83;21037;-76
2021/07/12 00:24:56;;;;;;;;;;;;;;;22.65;87.71;100191.52;1700411;82;20316;-79
2021/07/12 00:27:22;;;;;;;;;;;;;;;22.58;88.07;100195.69;1700766;82;20146;-77
2021/07/12 00:29:47;;;;;;;;;;;;;;;22.65;87.96;100190.71;1713669;82;20456;-83
2021/07/12 00:32:13;;;;;;;;;;;;;;;22.65;87.32;100196.09;1713657;82;20145;-79
2021/07/12 00:34:41;;;;;;;;;;;;;;;22.76;87.09;100187.18;1703030;82;21083;-82
2021/07/12 00:37:07;;;;;;;;;;;;;;;22.80;86.49;100185.66;1711485;82;20077;-79
2021/07/12 00:39:32;;;;;;;;;;;;;;;22.83;86.26;100182.50;1702593;82;20347;-79
2021/07/12 00:41:58;;;;;;;;;;;;;;;22.63;87.21;100184.75;1702784;82;20466;-78
2021/07/12 00:44:26;;;;;;;;;;;;;;;22.61;87.40;100184.15;1707558;82;20191;-77
2021/07/12 00:46:51;;;;;;;;;;;;;;;22.59;87.15;100189.27;1705359;82;20174;-82
2021/07/12 00:49:18;;;;;;;;;;;;;;;22.59;87.07;100193.30;1705376;82;20142;-78
2021/07/12 00:51:44;;;;;;;;;;;;;;;22.55;87.11;100195.34;1711536;83;20198;-82
2021/07/12 00:54:11;;;;;;;;;;;;;;;22.55;86.66;100198.84;1706118;83;20205;-79
2021/07/12 00:56:37;;;;;;;;;;;;;;;22.44;87.02;100201.02;1709129;82;20194;-79
2021/07/12 00:59:03;;;;;;;;;;;;;;;22.44;87.00;100201.02;1697222;82;22048;-78
2021/07/12 01:01:29;;;;;;;;;;;;;;;22.39;87.14;100205.75;1712665;82;20086;-84
2021/07/12 01:03:58;;;;;;;;;;;;;;;22.41;87.27;100204.17;1719537;82;20264;-79
2021/07/12 01:06:25;;;;;;;;;;;;;;;22.35;87.32;100203.77;1714555;82;20421;-83
2021/07/12 01:08:50;;;;;;;;;;;;;;;22.36;87.46;100200.84;1705334;82;20166;-78
2021/07/12 01:11:36;;;;;;;;;;;;;;;22.33;87.29;100199.95;1692988;83;21147;-79
2021/07/12 01:14:25;;;;;;;;;;;;;;;22.20;88.05;100189.37;1698145;82;20121;-78
2021/07/12 01:17:10;;;;;;;;;;;;;;;22.21;88.09;100179.73;1710633;82;20155;-77
2021/07/12 01:20:07;;;;;;;;;;;;;;;22.07;88.72;100182.34;1701217;82;20179;-76
2021/07/12 01:22:47;;;;;;;;;;;;;;;22.14;88.34;100184.41;1704468;82;20206;-77
2021/07/12 01:25:44;;;;;;;;;;;;;;;22.11;88.12;100190.26;1709126;82;20195;-77
2021/07/12 01:28:47;;;;;;;;;;;;;;;22.08;88.74;100194.75;1713010;82;20176;-78
2021/07/12 01:31:16;;;;;;;;;;;;;;;22.03;88.98;100189.23;1695757;82;20371;-79
2021/07/12 01:33:44;;;;;;;;;;;;;;;22.02;88.83;100187.61;1701986;82;20148;-78
2021/07/12 01:36:39;;;;;;;;;;;;;;;22.01;89.32;100194.03;1684072;82;20616;-77
2021/07/12 01:39:08;;;;;;;;;;;;;;;21.98;89.27;100193.14;1706647;82;21102;-77
2021/07/12 01:41:56;;;;;;;;;;;;;;;21.89;89.88;100187.27;1694663;82;20222;-78
2021/07/12 01:44:43;;;;;;;;;;;;;;;21.92;89.43;100184.66;1705869;82;20151;-76
2021/07/12 01:47:15;;;;;;;;;;;;;;;21.90;89.51;100189.45;1708096;82;20577;-79
2021/07/12 01:50:02;;;;;;;;;;;;;;;21.83;89.73;100186.84;1716894;83;20201;-77
2021/07/12 01:52:30;;;;;;;;;;;;;;;21.74;90.25;100185.56;1709479;82;21109;-78
2021/07/12 01:55:01;;;;;;;;;;;;;;;21.73;90.34;100180.69;1712418;82;20526;-77
2021/07/12 01:57:29;;;;;;;;;;;;;;;21.64;90.83;100183.41;1717554;82;20475;-77
2021/07/12 02:00:02;;;;;;;;;;;;;;;21.66;90.64;100181.33;1711427;82;20163;-80
2021/07/12 02:02:28;;;;;;;;;;;;;;;21.65;90.49;100179.67;1694818;82;20219;-82
2021/07/12 02:04:56;;;;;;;;;;;;;;;21.74;90.05;100181.53;1709757;82;21067;-77
2021/07/12 02:07:22;;;;;;;;;;;;;;;21.71;89.91;100178.77;1708942;82;20168;-79
2021/07/12 02:09:48;;;;;;;;;;;;;;;21.71;89.96;100176.61;1715973;82;20184;-77
2021/07/12 02:12:13;;;;;;;;;;;;;;;21.72;89.42;100175.03;1712987;82;20446;-80
2021/07/12 02:14:39;;;;;;;;;;;;;;;21.64;89.96;100172.65;1709134;82;20147;-77
2021/07/12 02:17:05;;;;;;;;;;;;;;;21.68;90.11;100176.00;1700334;82;21021;-77
2021/07/12 02:19:31;;;;;;;;;;;;;;;21.63;90.29;100173.72;1711929;82;20201;-79
2021/07/12 02:21:59;;;;;;;;;;;;;;;21.66;89.91;100174.61;1709425;82;20164;-79
2021/07/12 02:24:24;;;;;;;;;;;;;;;21.58;90.34;100168.19;1703976;82;20284;-77
2021/07/12 02:26:50;;;;;;;;;;;;;;;21.53;90.66;100170.22;1701647;82;20150;-77
2021/07/12 02:29:19;;;;;;;;;;;;;;;21.47;90.50;100175.97;1713617;82;21084;-78
2021/07/12 02:31:47;;;;;;;;;;;;;;;21.49;90.23;100165.83;1707650;82;20119;-77
2021/07/12 02:34:13;;;;;;;;;;;;;;;21.59;89.57;100161.78;1712296;82;20167;-78
2021/07/12 02:36:39;;;;;;;;;;;;;;;21.61;89.74;100155.64;1708474;82;20474;-79
2021/07/12 02:39:06;;;;;;;;;;;;;;;21.50;89.96;100155.39;1705134;83;20172;-78
2021/07/12 02:41:34;;;;;;;;;;;;;;;21.47;90.14;100154.47;1715131;82;21057;-78
2021/07/12 02:43:59;;;;;;;;;;;;;;;21.44;90.53;100150.90;1708996;82;20186;-78
2021/07/12 02:46:25;;;;;;;;;;;;;;;21.48;90.50;100153.41;1708163;82;20197;-82
2021/07/12 02:48:51;;;;;;;;;;;;;;;21.54;90.31;100153.59;1702378;82;20154;-77
2021/07/12 02:51:17;;;;;;;;;;;;;;;21.48;90.44;100145.34;1691761;82;20244;-82
2021/07/12 02:53:49;;;;;;;;;;;;;;;21.51;89.98;100152.98;1661046;84;21214;-78
2021/07/12 02:56:15;;;;;;;;;;;;;;;21.53;90.29;100150.59;1703805;82;20178;-78
2021/07/12 02:58:41;;;;;;;;;;;;;;;21.53;89.70;100148.72;1714267;83;20808;-81
2021/07/12 03:01:06;;;;;;;;;;;;;;;21.58;89.67;100148.03;1716679;83;20157;-78
2021/07/12 03:03:34;;;;;;;;;;;;;;;21.59;89.03;100148.34;1700618;82;20756;-78
2021/07/12 03:06:04;;;;;;;;;;;;;;;21.49;89.25;100149.71;1709132;83;20162;-77
2021/07/12 03:08:44;;;;;;;;;;;;;;;21.51;89.60;100151.64;1715164;82;20127;-78
2021/07/12 03:11:10;;;;;;;;;;;;;;;21.46;90.12;100146.64;1698832;83;20146;-79
2021/07/12 03:13:42;;;;;;;;;;;;;;;21.41;90.15;100143.30;1698503;82;20130;-82
2021/07/12 03:16:08;;;;;;;;;;;;;;;21.38;90.34;100142.41;1703807;82;20181;-79
2021/07/12 03:18:54;;;;;;;;;;;;;;;21.34;90.34;100143.90;1700839;82;21269;-80
2021/07/12 03:21:21;;;;;;;;;;;;;;;21.33;90.45;100144.94;1707750;82;20234;-79
2021/07/12 03:23:47;;;;;;;;;;;;;;;21.35;90.34;100140.17;1711469;82;20147;-79
2021/07/12 03:26:13;;;;;;;;;;;;;;;21.45;90.22;100137.74;1702145;82;20194;-80
2021/07/12 03:28:39;;;;;;;;;;;;;;;21.45;89.92;100136.40;1704653;82;20150;-77
2021/07/12 03:31:06;;;;;;;;;;;;;;;21.49;89.62;100132.78;1712423;83;21021;-80
2021/07/12 03:33:31;;;;;;;;;;;;;;;21.54;89.21;100136.13;1704398;82;20136;-81
2021/07/12 03:35:57;;;;;;;;;;;;;;;21.57;89.15;100137.02;1697671;82;20642;-81
2021/07/12 03:38:22;;;;;;;;;;;;;;;21.63;88.78;100144.16;1712714;82;20411;-80
2021/07/12 03:40:49;;;;;;;;;;;;;;;21.62;88.85;100139.82;1712463;82;20186;-80
2021/07/12 03:43:15;;;;;;;;;;;;;;;21.62;88.86;100145.20;1700246;82;21146;-78
2021/07/12 03:45:41;;;;;;;;;;;;;;;21.68;88.51;100141.59;1705492;82;20175;-77
2021/07/12 03:48:07;;;;;;;;;;;;;;;21.70;88.58;100140.83;1706535;82;20150;-78
2021/07/12 03:50:33;;;;;;;;;;;;;;;21.76;88.40;100143.94;1700453;83;20107;-83
2021/07/12 03:53:04;;;;;;;;;;;;;;;21.85;88.00;100142.56;1697249;83;20146;-78
2021/07/12 03:55:29;;;;;;;;;;;;;;;21.90;87.97;100141.87;1701310;82;21033;-83
2021/07/12 03:57:55;;;;;;;;;;;;;;;21.86;87.95;100141.52;1707869;82;20185;-79
2021/07/12 04:00:23;;;;;;;;;;;;;;;21.83;88.45;100141.98;1711426;82;20142;-83
2021/07/12 04:02:50;;;;;;;;;;;;;;;21.93;88.31;100143.28;1713397;82;20175;-79
2021/07/12 04:05:17;;;;;;;;;;;;;;;21.90;88.51;100139.71;1696878;82;20309;-78
2021/07/12 04:07:43;;;;;;;;;;;;;;;22.02;88.29;100137.86;1704140;83;21123;-82
2021/07/12 04:10:10;;;;;;;;;;;;;;;22.01;87.92;100141.59;1702206;82;20149;-78
2021/07/12 04:12:38;;;;;;;;;;;;;;;21.99;88.47;100131.60;1696475;83;20203;-78
2021/07/12 04:15:05;;;;;;;;;;;;;;;22.02;88.70;100140.55;1711338;82;20178;-78
2021/07/12 04:17:31;;;;;;;;;;;;;;;22.15;88.20;100132.24;1712615;82;20236;-83
2021/07/12 04:20:01;;;;;;;;;;;;;;;22.16;88.09;100127.16;1708040;82;21159;-77
2021/07/12 04:22:24;;;;;;;;;;;;;;;22.10;88.56;100120.03;1709484;82;20261;-79
2021/07/12 04:24:50;;;;;;;;;;;;;;;22.22;88.27;100123.55;1708499;82;20146;-82
2021/07/12 04:27:16;;;;;;;;;;;;;;;22.26;88.30;100124.42;1711264;82;20199;-77
2021/07/12 04:29:41;;;;;;;;;;;;;;;22.44;87.69;100124.86;1707491;82;20168;-77
2021/07/12 04:32:09;;;;;;;;;;;;;;;22.46;87.81;100123.55;1716251;82;21049;-83
2021/07/12 04:34:35;;;;;;;;;;;;;;;22.48;87.56;100117.94;1711429;82;20627;-79
2021/07/12 04:37:00;;;;;;;;;;;;;;;22.64;87.27;100119.08;1685832;82;20188;-79
2021/07/12 04:39:27;;;;;;;;;;;;;;;22.71;86.91;100115.74;1697258;82;20184;-77
2021/07/12 04:41:53;;;;;;;;;;;;;;;22.79;86.63;100115.36;1706871;82;20206;-78
2021/07/12 04:44:22;;;;;;;;;;;;;;;22.89;86.47;100114.23;1708557;82;21197;-78
2021/07/12 04:46:49;;;;;;;;;;;;;;;22.95;86.01;100117.31;1703651;83;20167;-78
2021/07/12 04:49:15;;;;;;;;;;;;;;;22.90;86.15;100107.80;1712181;82;20152;-81
2021/07/12 04:51:40;;;;;;;;;;;;;;;22.94;86.27;100099.52;1678183;82;20171;-79
2021/07/12 04:54:06;;;;;;;;;;;;;;;23.04;85.79;100104.81;1706571;82;20196;-78
2021/07/12 04:56:33;;;;;;;;;;;;;;;23.02;85.91;100100.20;1702849;82;21072;-78
2021/07/12 04:58:59;;;;;;;;;;;;;;;23.09;86.02;100102.27;1691516;83;20212;-79
2021/07/12 05:01:27;;;;;;;;;;;;;;;23.17;85.70;100107.27;1708295;83;20213;-78
2021/07/12 05:03:52;;;;;;;;;;;;;;;23.25;85.18;100115.48;1698643;82;20114;-77
2021/07/12 05:06:18;;;;;;;;;;;;;;;23.34;84.84;100110.51;1702642;82;20128;-78
2021/07/12 05:08:43;;;;;;;;;;;;;;;23.36;84.59;100109.76;1715386;82;21022;-78
2021/07/12 05:11:09;;;;;;;;;;;;;;;23.33;84.84;100115.63;1707353;82;20172;-78
2021/07/12 05:13:35;;;;;;;;;;;;;;;23.37;85.53;100112.72;1708416;82;20136;-77
2021/07/12 05:16:02;;;;;;;;;;;;;;;23.41;84.96;100115.23;1698626;82;20183;-82
2021/07/12 05:18:27;;;;;;;;;;;;;;;23.52;85.02;100119.73;1693442;82;20195;-78
2021/07/12 05:20:53;;;;;;;;;;;;;;;23.61;84.56;100123.67;1711066;82;21993;-80
2021/07/12 05:23:19;;;;;;;;;;;;;;;23.71;84.04;100130.30;1711711;82;20144;-78
2021/07/12 05:25:45;;;;;;;;;;;;;;;23.74;83.85;100127.11;1709484;82;20594;-80
2021/07/12 05:28:10;;;;;;;;;;;;;;;23.80;83.78;100124.28;1704154;82;20148;-80
2021/07/12 05:30:36;;;;;;;;;;;;;;;23.92;83.35;100126.91;1709208;82;20161;-80
2021/07/12 05:33:01;;;;;;;;;;;;;;;23.92;83.33;100123.41;1717859;82;21131;-79
2021/07/12 05:35:27;;;;;;;;;;;;;;;23.88;83.78;100127.64;1714698;82;20799;-82
2021/07/12 05:37:53;;;;;;;;;;;;;;;24.03;83.52;100120.34;1709877;82;20200;-78
2021/07/12 05:40:20;;;;;;;;;;;;;;;24.00;83.92;100117.08;1713926;82;20134;-78
2021/07/12 05:42:46;;;;;;;;;;;;;;;24.11;84.06;100118.02;1716444;82;20143;-78
2021/07/12 05:45:11;;;;;;;;;;;;;;;24.15;83.62;100105.69;1711894;82;21832;-78
2021/07/12 05:47:37;;;;;;;;;;;;;;;24.22;83.72;100108.20;1705145;83;20182;-79
2021/07/12 05:50:07;;;;;;;;;;;;;;;24.34;83.26;100110.27;1701901;82;20265;-79
2021/07/12 05:52:36;;;;;;;;;;;;;;;24.43;83.10;100105.81;1704720;82;20116;-77
2021/07/12 05:55:04;;;;;;;;;;;;;;;24.48;82.64;100097.23;1707651;82;20244;-77
2021/07/12 05:57:33;;;;;;;;;;;;;;;24.50;82.88;100100.52;1706624;82;21068;-77
2021/07/12 05:59:59;;;;;;;;;;;;;;;24.57;82.53;100105.75;1714202;82;20203;-79
2021/07/12 06:02:24;;;;;;;;;;;;;;;24.58;82.29;100104.70;1711784;82;20187;-80
2021/07/12 06:04:53;;;;;;;;;;;;;;;24.62;82.32;100103.11;1699822;82;20171;-79
2021/07/12 06:07:22;;;;;;;;;;;;;;;24.74;82.18;100094.90;1709556;82;20468;-80
2021/07/12 06:09:48;;;;;;;;;;;;;;;24.72;82.23;100094.34;1703049;82;20998;-79
2021/07/12 06:12:13;;;;;;;;;;;;;;;24.68;82.43;100096.70;1706845;82;20289;-78
2021/07/12 06:14:39;;;;;;;;;;;;;;;24.75;82.28;100099.75;1696533;82;20158;-78
2021/07/12 06:17:05;;;;;;;;;;;;;;;24.96;81.76;100092.72;1711931;82;20181;-79
2021/07/12 06:19:30;;;;;;;;;;;;;;;25.11;81.15;100097.45;1708508;83;20226;-81
2021/07/12 06:21:58;;;;;;;;;;;;;;;25.24;81.03;100095.16;1705612;82;21147;-78
2021/07/12 06:24:27;;;;;;;;;;;;;;;25.32;80.67;100100.68;1708713;82;20214;-80
2021/07/12 06:26:54;;;;;;;;;;;;;;;25.43;80.05;100096.19;1705431;82;20122;-81
2021/07/12 06:29:21;;;;;;;;;;;;;;;25.46;79.54;100097.58;1668660;83;20471;-77
2021/07/12 06:31:47;;;;;;;;;;;;;;;25.61;79.27;100103.92;1701752;82;20704;-78
2021/07/12 06:34:16;;;;;;;;;;;;;;;25.74;78.83;100099.97;1701321;82;20968;-79
2021/07/12 06:36:44;;;;;;;;;;;;;;;25.69;78.80;100100.48;1709417;82;20130;-79
2021/07/12 06:39:09;;;;;;;;;;;;;;;25.67;78.75;100096.68;1706481;82;20439;-77
2021/07/12 06:41:35;;;;;;;;;;;;;;;25.65;79.07;100097.45;1711665;82;21097;-82
2021/07/12 06:44:03;;;;;;;;;;;;;;;25.78;78.85;100097.03;1703438;82;20174;-79
2021/07/12 06:46:31;;;;;;;;;;;;;;;25.91;78.49;100101.73;1711909;82;22307;-81
2021/07/12 06:48:57;;;;;;;;;;;;;;;25.97;77.60;100097.98;1714484;82;20138;-85
2021/07/12 06:51:23;;;;;;;;;;;;;;;25.97;77.41;100098.82;1707357;83;20144;-78
2021/07/12 06:53:49;;;;;;;;;;;;;;;25.95;76.82;100094.73;1706668;82;20475;-77
2021/07/12 06:56:16;;;;;;;;;;;;;;;25.92;75.59;100092.55;1713405;82;20184;-77
2021/07/12 06:58:42;;;;;;;;;;;;;;;25.97;76.18;100089.87;1706604;82;21148;-80
2021/07/12 07:01:07;;;;;;;;;;;;;;;25.99;76.31;100086.38;1702522;82;20249;-83
2021/07/12 07:03:33;;;;;;;;;;;;;;;26.15;76.35;100089.48;1709419;82;20219;-77
2021/07/12 07:05:59;;;;;;;;;;;;;;;26.20;75.46;100098.72;1705863;82;20469;-80
2021/07/12 07:08:24;;;;;;;;;;;;;;;26.22;75.25;100091.95;1705825;83;20145;-77
2021/07/12 07:10:51;;;;;;;;;;;;;;;26.24;75.35;100088.98;1708351;82;21180;-79
2021/07/12 07:13:17;;;;;;;;;;;;;;;26.27;75.47;100083.03;1707721;82;20202;-87
2021/07/12 07:15:43;;;;;;;;;;;;;;;26.35;75.65;100086.59;1698225;82;20603;-80
2021/07/12 07:18:10;;;;;;;;;;;;;;;26.44;75.03;100085.56;1689951;83;20193;-84
2021/07/12 07:20:35;;;;;;;;;;;;;;;26.50;74.72;100083.97;1714957;82;20202;-77
2021/07/12 07:23:01;;;;;;;;;;;;;;;26.58;74.88;100088.61;1704703;82;21181;-84
2021/07/12 07:25:27;;;;;;;;;;;;;;;26.65;74.21;100090.55;1700631;83;21409;-80
2021/07/12 07:27:54;;;;;;;;;;;;;;;26.70;73.79;100081.11;1708939;83;20208;-78
2021/07/12 07:30:20;;;;;;;;;;;;;;;26.74;73.80;100081.38;1697437;82;20246;-81
2021/07/12 07:32:49;;;;;;;;;;;;;;;26.86;73.83;100081.97;1676043;83;20185;-79
2021/07/12 07:35:17;;;;;;;;;;;;;;;26.93;72.77;100084.45;1682186;83;20921;-85
2021/07/12 07:37:46;;;;;;;;;;;;;;;26.96;72.75;100086.08;1711443;82;20627;-79
2021/07/12 07:40:11;;;;;;;;;;;;;;;26.96;72.39;100081.20;1700942;82;20156;-80
2021/07/12 07:42:37;;;;;;;;;;;;;;;26.97;73.05;100084.16;1696060;82;20177;-82
2021/07/12 07:45:04;;;;;;;;;;;;;;;27.02;73.17;100081.48;1716788;82;20199;-80
2021/07/12 07:47:31;;;;;;;;;;;;;;;27.13;73.16;100081.77;1697183;82;20975;-78
2021/07/12 07:49:59;;;;;;;;;;;;;;;27.20;73.53;100078.24;1708166;82;20239;-85
2021/07/12 07:52:25;;;;;;;;;;;;;;;27.35;73.03;100080.76;1701530;82;20136;-77
2021/07/12 07:54:50;;;;;;;;;;;;;;;27.47;72.58;100084.02;1678153;82;21370;-77
2021/07/12 07:57:16;;;;;;;;;;;;;;;27.53;71.87;100077.52;1702256;82;20195;-79
2021/07/12 07:59:44;;;;;;;;;;;;;;;27.63;72.08;100077.25;1703905;83;21097;-78
2021/07/12 08:02:09;;;;;;;;;;;;;;;27.67;72.14;100078.31;1671366;82;20804;-84
2021/07/12 08:04:35;;;;;;;;;;;;;;;27.72;71.12;100074.27;1688202;83;21189;-79
2021/07/12 08:07:01;;;;;;;;;;;;;;;27.77;71.28;100074.25;1704717;82;21057;-81
2021/07/12 08:09:28;;;;;;;;;;;;;;;27.85;71.29;100069.61;1711631;82;20141;-78
2021/07/12 08:11:53;;;;;;;;;;;;;;;27.96;71.55;100076.42;1713104;82;21076;-78
2021/07/12 08:14:19;;;;;;;;;;;;;;;28.04;71.62;100063.64;1703935;82;20160;-80
2021/07/12 08:16:45;;;;;;;;;;;;;;;28.11;70.61;100065.54;1685327;82;20142;-82
2021/07/12 08:19:11;;;;;;;;;;;;;;;28.18;70.42;100068.77;1699670;83;20162;-80
2021/07/12 08:21:36;;;;;;;;;;;;;;;28.18;70.22;100066.05;1711188;82;20130;-79
2021/07/12 08:24:04;;;;;;;;;;;;;;;28.17;70.64;100063.08;1714777;83;21954;-79
2021/07/12 08:26:31;;;;;;;;;;;;;;;28.34;70.38;100063.28;1715179;82;20508;-80
2021/07/12 08:28:58;;;;;;;;;;;;;;;28.36;69.54;100074.70;1700404;82;20130;-78
2021/07/12 08:31:23;;;;;;;;;;;;;;;28.49;69.13;100076.81;1715606;82;20175;-82
2021/07/12 08:33:49;;;;;;;;;;;;;;;28.56;68.03;100071.91;1698390;82;20162;-80
2021/07/12 08:36:16;;;;;;;;;;;;;;;28.62;67.21;100070.82;1702839;82;22415;-84
2021/07/12 08:38:43;;;;;;;;;;;;;;;28.69;67.46;100068.35;1703943;82;20554;-77
2021/07/12 08:41:11;;;;;;;;;;;;;;;28.83;67.89;100057.13;1700079;83;20125;-79
2021/07/12 08:43:41;;;;;;;;;;;;;;;28.85;67.39;100057.64;1683876;82;20121;-91
2021/07/12 08:46:06;;;;;;;;;;;;;;;28.93;66.23;100057.08;1705156;82;20181;-77
2021/07/12 08:48:32;;;;;;;;;;;;;;;28.93;66.66;100062.52;1699387;82;21251;-78
2021/07/12 08:50:57;;;;;;;;;;;;;;;28.88;66.72;100057.09;1707715;82;20197;-85
2021/07/12 08:53:23;;;;;;;;;;;;;;;29.04;66.53;100058.35;1705532;82;20158;-80
2021/07/12 08:55:51;;;;;;;;;;;;;;;29.12;65.51;100063.22;1710316;82;20130;-79
2021/07/12 08:58:23;;;;;;;;;;;;;;;29.21;63.80;100054.75;1714579;82;20111;-82
2021/07/12 09:01:08;;;;;;;;;;;;;;;29.30;63.01;100057.66;1715994;82;20154;-81
2021/07/12 09:03:36;;;;;;;;;;;;;;;29.34;63.06;100052.73;1699962;83;21014;-82
2021/07/12 09:06:12;;;;;;;;;;;;;;;29.47;63.97;100059.98;1703960;83;20166;-87
2021/07/12 09:08:47;;;;;;;;;;;;;;;29.57;63.82;100054.46;1705768;82;20182;-78
2021/07/12 09:11:36;;;;;;;;;;;;;;;29.60;63.05;100053.89;1707731;82;20211;-77
2021/07/12 09:14:07;;;;;;;;;;;;;;;29.72;61.91;100049.41;1699222;82;21222;-78
2021/07/12 09:16:41;;;;;;;;;;;;;;;29.77;59.98;100056.72;1703375;82;20193;-80
2021/07/12 09:19:29;;;;;;;;;;;;;;;29.82;59.72;100060.80;1680540;83;21013;-81
2021/07/12 09:21:59;;;;;;;;;;;;;;;29.87;60.33;100055.30;1699031;83;20174;-77
2021/07/12 09:24:45;;;;;;;;;;;;;;;29.99;60.12;100057.08;1707775;82;20154;-79
2021/07/12 09:27:24;;;;;;;;;;;;;;;30.11;60.62;100058.59;1705762;82;20091;-83
2021/07/12 09:29:52;;;;;;;;;;;;;;;30.20;58.76;100052.77;1700598;82;20556;-84
2021/07/12 09:32:22;;;;;;;;;;;;;;;30.30;58.63;100056.74;1700292;83;20617;-85
2021/07/12 09:34:49;;;;;;;;;;;;;;;30.35;58.10;100052.59;1704538;82;20122;-85
2021/07/12 09:37:17;;;;;;;;;;;;;;;30.54;57.56;100053.20;1707179;82;20157;-82
2021/07/12 09:39:48;;;;;;;;;;;;;;;30.56;56.88;100053.72;1699695;82;22367;-84
2021/07/12 09:42:19;;;;;;;;;;;;;;;30.63;57.08;100052.02;1707663;83;20598;-80
2021/07/12 09:44:49;;;;;;;;;;;;;;;30.54;56.24;100052.64;1706172;82;20206;-77
2021/07/12 09:47:22;;;;;;;;;;;;;;;30.51;55.80;100052.43;1707348;82;20268;-84
2021/07/12 09:49:48;;;;;;;;;;;;;;;30.59;56.41;100050.41;1709869;82;20085;-78
2021/07/12 09:52:18;;;;;;;;;;;;;;;30.65;56.99;100056.61;1702380;82;21050;-78
2021/07/12 09:54:45;;;;;;;;;;;;;;;30.70;56.68;100053.28;1698171;83;21039;-79
2021/07/12 09:57:19;;;;;;;;;;;;;;;30.72;55.66;100050.26;1700866;82;20598;-80
2021/07/12 09:59:54;;;;;;;;;;;;;;;30.81;53.84;100046.30;1702188;82;20179;-77
2021/07/12 10:02:25;;;;;;;;;;;;;;;30.79;51.54;100046.06;1701440;82;20179;-80
2021/07/12 10:04:53;;;;;;;;;;;;;;;30.76;52.89;100038.47;1699361;82;21182;-79
2021/07/12 10:07:19;;;;;;;;;;;;;;;30.81;52.95;100031.30;1706914;83;20309;-81
2021/07/12 10:09:44;;;;;;;;;;;;;;;30.90;53.37;100036.35;1702234;82;20690;-80
2021/07/12 10:12:12;;;;;;;;;;;;;;;30.93;53.67;100030.31;1704888;82;20165;-77
2021/07/12 10:14:40;;;;;;;;;;;;;;;31.00;52.52;100026.70;1695002;82;36407;-77
2021/07/12 10:17:14;;;;;;;;;;;;;;;31.00;52.96;100025.33;1701956;83;20680;-79
2021/07/12 10:19:37;;;;;;;;;;;;;;;31.01;53.16;100022.05;1699679;83;20136;-82
2021/07/12 10:22:04;;;;;;;;;;;;;;;31.09;53.40;100024.92;1709955;83;20307;-79
2021/07/12 10:24:40;;;;;;;;;;;;;;;31.11;52.82;100026.79;1712242;82;20181;-78
2021/07/12 10:27:06;;;;;;;;;;;;;;;31.17;51.84;100028.89;1708278;82;20259;-77
2021/07/12 10:29:35;;;;;;;;;;;;;;;31.16;50.61;100019.64;1706480;83;21966;-83
2021/07/12 10:32:09;;;;;;;;;;;;;;;31.20;49.57;100021.48;1712214;82;20135;-80
2021/07/12 10:34:40;;;;;;;;;;;;;;;31.22;49.47;100025.27;1714216;82;20099;-86
2021/07/12 10:37:26;;;;;;;;;;;;;;;31.29;49.87;100021.59;1661616;82;20172;-79
2021/07/12 10:40:15;;;;;;;;;;;;;;;31.40;50.56;100023.06;1682606;82;20175;-79
2021/07/12 10:42:48;;;;;;;;;;;;;;;31.46;49.49;100013.68;1702548;82;21234;-77
2021/07/12 10:45:21;;;;;;;;;;;;;;;31.53;49.49;100008.39;1714424;83;20134;-78
2021/07/12 10:47:54;;;;;;;;;;;;;;;31.59;48.22;100018.94;1717619;82;20203;-76
2021/07/12 10:50:46;;;;;;;;;;;;;;;31.72;47.32;100017.33;1716815;83;20197;-78
2021/07/12 10:53:25;;;;;;;;;;;;;;;31.69;47.26;100008.38;1709089;82;20186;-76
2021/07/12 10:56:08;;;;;;;;;;;;;;;31.66;48.25;100007.61;1707481;82;21190;-77
2021/07/12 10:58:39;;;;;;;;;;;;;;;31.70;48.51;100007.81;1716239;82;20155;-83
2021/07/12 11:01:07;;;;;;;;;;;;;;;31.67;47.67;100003.78;1702659;82;20182;-85
2021/07/12 11:03:43;;;;;;;;;;;;;;;31.71;47.11;100000.69;1700782;82;20982;-80
2021/07/12 11:06:20;;;;;;;;;;;;;;;31.76;45.66;99999.25;1716944;82;20432;-80
2021/07/12 11:08:51;;;;;;;;;;;;;;;31.96;45.81;99985.75;1702496;82;20644;-79
2021/07/12 11:11:23;;;;;;;;;;;;;;;32.06;46.12;99983.36;1716321;82;20147;-81
2021/07/12 11:14:05;;;;;;;;;;;;;;;32.16;45.91;99974.17;1708544;82;20183;-78
2021/07/12 11:16:38;;;;;;;;;;;;;;;32.16;43.77;99977.73;1704306;82;20769;-77
2021/07/12 11:19:28;;;;;;;;;;;;;;;32.35;41.94;99969.96;1712270;82;20205;-80
2021/07/12 11:21:57;;;;;;;;;;;;;;;32.29;41.94;99976.66;1714367;82;21172;-76
2021/07/12 11:24:23;;;;;;;;;;;;;;;32.27;40.43;99964.66;1695200;83;20227;-76
2021/07/12 11:26:51;;;;;;;;;;;;;;;32.33;39.29;99961.23;1697518;83;20713;-78
2021/07/12 11:29:21;;;;;;;;;;;;;;;32.27;39.37;99963.83;1702965;82;20858;-75
2021/07/12 11:32:07;;;;;;;;;;;;;;;32.41;39.40;99963.80;1693315;82;20167;-77
2021/07/12 11:34:39;;;;;;;;;;;;;;;32.53;40.15;99953.14;1704056;82;22096;-75
2021/07/12 11:37:13;;;;;;;;;;;;;;;32.60;39.93;99952.70;1702921;82;20152;-80
2021/07/12 11:39:44;;;;;;;;;;;;;;;32.57;39.22;99944.59;1701515;82;20640;-80
2021/07/12 11:42:19;;;;;;;;;;;;;;;32.50;39.33;99942.25;1704344;82;20859;-84
2021/07/12 11:44:51;;;;;;;;;;;;;;;32.46;39.15;99953.58;1705103;82;20198;-78
2021/07/12 11:47:20;;;;;;;;;;;;;;;32.49;38.92;99936.56;1698939;82;21196;-78
2021/07/12 11:49:53;;;;;;;;;;;;;;;32.53;38.84;99926.61;1703384;83;20224;-79
2021/07/12 11:52:20;;;;;;;;;;;;;;;32.62;38.90;99923.16;1701072;83;20108;-81
2021/07/12 11:54:46;;;;;;;;;;;;;;;32.64;39.10;99914.91;1704515;82;20174;-79
2021/07/12 11:57:14;;;;;;;;;;;;;;;32.75;39.22;99911.36;1706510;82;20156;-78
2021/07/12 11:59:41;;;;;;;;;;;;;;;32.88;39.90;99905.59;1698472;83;21136;-82
2021/07/12 12:02:11;;;;;;;;;;;;;;;32.91;39.80;99910.44;1670718;83;20482;-80
2021/07/12 12:04:51;;;;;;;;;;;;;;;32.93;39.38;99906.26;1703553;82;20277;-80
2021/07/12 12:07:32;;;;;;;;;;;;;;;33.05;39.17;99902.16;1701084;83;20908;-83
2021/07/12 12:10:24;;;;;;;;;;;;;;;33.16;39.47;99914.98;1700696;83;20519;-80
2021/07/12 12:12:57;;;;;;;;;;;;;;;33.26;39.95;99915.55;1705747;82;21121;-81
2021/07/12 12:15:25;;;;;;;;;;;;;;;33.32;38.78;99925.02;1682617;82;20240;-79
2021/07/12 12:17:54;;;;;;;;;;;;;;;33.35;37.64;99929.87;1705123;82;20215;-88
2021/07/12 12:20:23;;;;;;;;;;;;;;;33.40;37.46;99925.61;1701438;82;20170;-83
2021/07/12 12:23:08;;;;;;;;;;;;;;;33.42;36.88;99919.25;1703099;82;20223;-87
2021/07/12 12:25:40;;;;;;;;;;;;;;;33.50;37.61;99906.18;1701148;82;21132;-86
2021/07/12 12:28:06;;;;;;;;;;;;;;;33.45;37.35;99898.09;1690509;83;20240;-83
2021/07/12 12:30:35;;;;;;;;;;;;;;;33.52;37.51;99894.91;1700058;82;20285;-81
2021/07/12 12:33:03;;;;;;;;;;;;;;;33.57;37.69;99891.45;1705164;82;21108;-87
2021/07/12 12:35:31;;;;;;;;;;;;;;;33.62;37.52;99876.27;1703168;83;20190;-84
2021/07/12 12:38:10;;;;;;;;;;;;;;;33.49;37.27;99875.81;1702870;82;21188;-85
2021/07/12 12:40:36;;;;;;;;;;;;;;;33.35;37.58;99875.12;1697146;83;20184;-84
2021/07/12 12:43:11;;;;;;;;;;;;;;;33.41;37.83;99867.02;1704079;82;20578;-84
2021/07/12 12:45:41;;;;;;;;;;;;;;;33.36;38.30;99869.88;1702454;82;20177;-83
2021/07/12 12:48:08;;;;;;;;;;;;;;;33.38;38.57;99875.86;1704921;82;20263;-86